3O8 weather

Harris Ranch Airport
Coalinga, California, United States

Public forecast

Using degrees Fahrenheit for public forecast. Weather courtesy of forecast.io.

METAR (pilot weather report)

Closest report is Lemoore Naval Air Station (Reeves Field) Airport, 14.8 nm (27.3 km) ENE. Retrieved 2019/07/21 19:56 UTC (24 minutes ago):

KNLC 211956Z 03006KT 10SM FEW250 34/14 A2989 RMK AO2 SLP119 RH/33 T03390139

TAF (pilot weather forecast)

Forecast is more than 12 hours old.

Closest forecast is Lemoore Naval Air Station (Reeves Field) Airport, 14.8 nm (27.3 km) ENE. Retrieved 2016/08/04 23:21 UTC (3 years ago):

TAF KNLC 032300Z 0323/0423 35010KT 9999 FEW180 QNH2980INS TEMPO 0323/0405 03008KT FM040500 30005KT 9999 SKC QNH2986INS TX19/0413Z TN39/0423Z FS30067